sensor_id;sensor_type;location;lat;lon;timestamp;P1;durP1;ratioP1;P2;durP2;ratioP2
12429;SDS011;6279;42.192;24.326;2022-07-30T00:01:39;6.17;;;4.00;;
12429;SDS011;6279;42.192;24.326;2022-07-30T00:04:05;7.70;;;4.50;;
12429;SDS011;6279;42.192;24.326;2022-07-30T00:06:30;9.93;;;4.40;;
12429;SDS011;6279;42.192;24.326;2022-07-30T00:08:56;5.43;;;4.13;;
12429;SDS011;6279;42.192;24.326;2022-07-30T00:11:22;7.23;;;4.13;;
12429;SDS011;6279;42.192;24.326;2022-07-30T00:13:48;4.40;;;3.70;;
12429;SDS011;6279;42.192;24.326;2022-07-30T00:16:14;8.23;;;4.03;;
12429;SDS011;6279;42.192;24.326;2022-07-30T00:18:39;5.10;;;4.43;;
12429;SDS011;6279;42.192;24.326;2022-07-30T00:21:04;8.20;;;4.57;;
12429;SDS011;6279;42.192;24.326;2022-07-30T00:23:30;4.70;;;4.30;;
12429;SDS011;6279;42.192;24.326;2022-07-30T00:25:56;10.90;;;4.53;;
12429;SDS011;6279;42.192;24.326;2022-07-30T00:28:22;7.20;;;4.20;;
12429;SDS011;6279;42.192;24.326;2022-07-30T00:30:47;7.63;;;4.63;;
12429;SDS011;6279;42.192;24.326;2022-07-30T00:33:13;4.87;;;4.30;;
12429;SDS011;6279;42.192;24.326;2022-07-30T00:35:38;6.37;;;4.87;;
12429;SDS011;6279;42.192;24.326;2022-07-30T00:38:04;5.40;;;4.90;;
12429;SDS011;6279;42.192;24.326;2022-07-30T00:40:29;5.00;;;4.50;;
12429;SDS011;6279;42.192;24.326;2022-07-30T00:42:55;6.60;;;4.33;;
12429;SDS011;6279;42.192;24.326;2022-07-30T00:45:20;6.40;;;5.10;;
12429;SDS011;6279;42.192;24.326;2022-07-30T00:47:45;11.50;;;4.77;;
12429;SDS011;6279;42.192;24.326;2022-07-30T00:50:12;5.60;;;4.57;;
12429;SDS011;6279;42.192;24.326;2022-07-30T00:52:39;4.93;;;4.43;;
12429;SDS011;6279;42.192;24.326;2022-07-30T00:55:06;6.70;;;4.67;;
12429;SDS011;6279;42.192;24.326;2022-07-30T00:57:33;4.87;;;4.37;;
12429;SDS011;6279;42.192;24.326;2022-07-30T00:59:58;7.57;;;4.70;;
12429;SDS011;6279;42.192;24.326;2022-07-30T01:02:24;5.60;;;4.30;;
12429;SDS011;6279;42.192;24.326;2022-07-30T01:04:49;4.97;;;4.43;;
12429;SDS011;6279;42.192;24.326;2022-07-30T01:07:15;6.17;;;4.40;;
12429;SDS011;6279;42.192;24.326;2022-07-30T01:09:40;6.40;;;4.20;;
12429;SDS011;6279;42.192;24.326;2022-07-30T01:12:06;6.23;;;4.50;;
12429;SDS011;6279;42.192;24.326;2022-07-30T01:14:34;7.17;;;4.10;;
12429;SDS011;6279;42.192;24.326;2022-07-30T01:17:00;5.57;;;4.80;;
12429;SDS011;6279;42.192;24.326;2022-07-30T01:19:36;5.00;;;4.50;;
12429;SDS011;6279;42.192;24.326;2022-07-30T01:28:16;8.77;;;5.93;;
12429;SDS011;6279;42.192;24.326;2022-07-30T01:30:43;6.80;;;4.83;;
12429;SDS011;6279;42.192;24.326;2022-07-30T01:33:14;10.60;;;5.37;;
12429;SDS011;6279;42.192;24.326;2022-07-30T01:35:42;5.50;;;4.60;;
12429;SDS011;6279;42.192;24.326;2022-07-30T01:38:10;7.73;;;4.53;;
12429;SDS011;6279;42.192;24.326;2022-07-30T01:40:38;8.17;;;4.33;;
12429;SDS011;6279;42.192;24.326;2022-07-30T01:43:04;6.47;;;4.67;;
12429;SDS011;6279;42.192;24.326;2022-07-30T01:45:31;5.20;;;4.77;;
12429;SDS011;6279;42.192;24.326;2022-07-30T01:47:59;6.27;;;4.33;;
12429;SDS011;6279;42.192;24.326;2022-07-30T01:50:27;6.57;;;4.57;;
12429;SDS011;6279;42.192;24.326;2022-07-30T01:52:53;11.23;;;5.10;;
12429;SDS011;6279;42.192;24.326;2022-07-30T01:55:22;9.73;;;4.20;;
12429;SDS011;6279;42.192;24.326;2022-07-30T01:57:51;5.00;;;4.43;;
12429;SDS011;6279;42.192;24.326;2022-07-30T02:00:20;7.10;;;4.30;;
12429;SDS011;6279;42.192;24.326;2022-07-30T02:02:47;6.47;;;4.73;;
12429;SDS011;6279;42.192;24.326;2022-07-30T02:05:12;5.83;;;4.60;;
12429;SDS011;6279;42.192;24.326;2022-07-30T02:10:30;6.90;;;4.67;;
12429;SDS011;6279;42.192;24.326;2022-07-30T02:12:59;6.43;;;4.43;;
12429;SDS011;6279;42.192;24.326;2022-07-30T02:20:36;6.57;;;4.70;;
12429;SDS011;6279;42.192;24.326;2022-07-30T02:23:02;5.00;;;4.50;;
12429;SDS011;6279;42.192;24.326;2022-07-30T02:25:31;5.77;;;4.63;;
12429;SDS011;6279;42.192;24.326;2022-07-30T02:27:59;5.80;;;4.47;;
12429;SDS011;6279;42.192;24.326;2022-07-30T02:30:29;6.87;;;4.53;;
12429;SDS011;6279;42.192;24.326;2022-07-30T02:32:58;5.10;;;4.60;;
12429;SDS011;6279;42.192;24.326;2022-07-30T02:35:27;6.87;;;5.00;;
12429;SDS011;6279;42.192;24.326;2022-07-30T02:37:54;9.23;;;5.20;;
12429;SDS011;6279;42.192;24.326;2022-07-30T02:40:20;7.23;;;4.93;;
12429;SDS011;6279;42.192;24.326;2022-07-30T02:42:48;6.40;;;4.90;;
12429;SDS011;6279;42.192;24.326;2022-07-30T02:45:15;5.77;;;4.77;;
12429;SDS011;6279;42.192;24.326;2022-07-30T02:47:42;12.87;;;5.00;;
12429;SDS011;6279;42.192;24.326;2022-07-30T02:50:10;5.83;;;5.23;;
12429;SDS011;6279;42.192;24.326;2022-07-30T02:52:37;5.00;;;4.60;;
12429;SDS011;6279;42.192;24.326;2022-07-30T02:55:04;5.60;;;5.10;;
12429;SDS011;6279;42.192;24.326;2022-07-30T02:57:32;6.77;;;4.97;;
12429;SDS011;6279;42.192;24.326;2022-07-30T02:59:58;7.67;;;5.50;;
12429;SDS011;6279;42.192;24.326;2022-07-30T03:02:25;6.17;;;5.10;;
12429;SDS011;6279;42.192;24.326;2022-07-30T03:04:51;7.13;;;4.87;;
12429;SDS011;6279;42.192;24.326;2022-07-30T03:07:18;6.50;;;4.87;;
12429;SDS011;6279;42.192;24.326;2022-07-30T03:09:45;7.03;;;5.20;;
12429;SDS011;6279;42.192;24.326;2022-07-30T03:12:11;7.90;;;5.23;;
12429;SDS011;6279;42.192;24.326;2022-07-30T03:14:38;10.20;;;5.60;;
12429;SDS011;6279;42.192;24.326;2022-07-30T03:17:04;7.30;;;5.30;;
12429;SDS011;6279;42.192;24.326;2022-07-30T03:19:31;8.07;;;5.63;;
12429;SDS011;6279;42.192;24.326;2022-07-30T03:21:59;6.90;;;5.23;;
12429;SDS011;6279;42.192;24.326;2022-07-30T03:24:26;6.97;;;5.50;;
12429;SDS011;6279;42.192;24.326;2022-07-30T03:26:53;7.07;;;5.30;;
12429;SDS011;6279;42.192;24.326;2022-07-30T03:29:21;6.47;;;5.40;;
12429;SDS011;6279;42.192;24.326;2022-07-30T03:31:48;6.87;;;5.90;;
12429;SDS011;6279;42.192;24.326;2022-07-30T03:34:14;10.10;;;6.70;;
12429;SDS011;6279;42.192;24.326;2022-07-30T03:36:41;8.10;;;6.27;;
12429;SDS011;6279;42.192;24.326;2022-07-30T03:39:07;9.67;;;6.00;;
12429;SDS011;6279;42.192;24.326;2022-07-30T03:41:34;6.93;;;5.50;;
12429;SDS011;6279;42.192;24.326;2022-07-30T03:44:01;7.83;;;5.37;;
12429;SDS011;6279;42.192;24.326;2022-07-30T03:46:27;5.53;;;4.93;;
12429;SDS011;6279;42.192;24.326;2022-07-30T03:48:53;5.97;;;5.20;;
12429;SDS011;6279;42.192;24.326;2022-07-30T03:51:19;8.53;;;5.00;;
12429;SDS011;6279;42.192;24.326;2022-07-30T03:53:45;7.33;;;5.43;;
12429;SDS011;6279;42.192;24.326;2022-07-30T03:56:12;9.50;;;5.10;;
12429;SDS011;6279;42.192;24.326;2022-07-30T03:58:39;6.00;;;4.87;;
12429;SDS011;6279;42.192;24.326;2022-07-30T04:01:05;7.23;;;4.97;;
12429;SDS011;6279;42.192;24.326;2022-07-30T04:03:31;8.70;;;5.53;;
12429;SDS011;6279;42.192;24.326;2022-07-30T04:05:58;7.43;;;5.60;;
12429;SDS011;6279;42.192;24.326;2022-07-30T04:08:24;6.27;;;5.20;;
12429;SDS011;6279;42.192;24.326;2022-07-30T04:10:49;6.83;;;5.40;;
12429;SDS011;6279;42.192;24.326;2022-07-30T04:13:16;8.70;;;5.23;;
12429;SDS011;6279;42.192;24.326;2022-07-30T04:18:39;6.27;;;4.90;;
12429;SDS011;6279;42.192;24.326;2022-07-30T04:21:09;10.07;;;5.10;;
12429;SDS011;6279;42.192;24.326;2022-07-30T04:23:39;6.27;;;5.10;;
12429;SDS011;6279;42.192;24.326;2022-07-30T04:26:05;6.40;;;4.60;;
12429;SDS011;6279;42.192;24.326;2022-07-30T04:28:31;6.50;;;4.70;;
12429;SDS011;6279;42.192;24.326;2022-07-30T04:30:57;7.87;;;4.63;;
12429;SDS011;6279;42.192;24.326;2022-07-30T04:33:22;5.20;;;4.77;;
12429;SDS011;6279;42.192;24.326;2022-07-30T04:35:48;6.77;;;5.00;;
12429;SDS011;6279;42.192;24.326;2022-07-30T04:38:13;5.10;;;4.70;;
12429;SDS011;6279;42.192;24.326;2022-07-30T04:40:39;4.80;;;4.40;;
12429;SDS011;6279;42.192;24.326;2022-07-30T04:43:05;10.40;;;4.83;;
12429;SDS011;6279;42.192;24.326;2022-07-30T04:45:31;4.90;;;4.40;;
12429;SDS011;6279;42.192;24.326;2022-07-30T04:47:56;9.27;;;4.57;;
12429;SDS011;6279;42.192;24.326;2022-07-30T04:50:24;6.50;;;4.70;;
12429;SDS011;6279;42.192;24.326;2022-07-30T04:52:52;7.07;;;4.57;;
12429;SDS011;6279;42.192;24.326;2022-07-30T04:55:19;6.23;;;4.73;;
12429;SDS011;6279;42.192;24.326;2022-07-30T04:57:47;9.77;;;5.13;;
12429;SDS011;6279;42.192;24.326;2022-07-30T05:00:14;6.57;;;4.40;;
12429;SDS011;6279;42.192;24.326;2022-07-30T05:02:40;6.97;;;4.83;;
12429;SDS011;6279;42.192;24.326;2022-07-30T05:05:07;6.00;;;4.90;;
12429;SDS011;6279;42.192;24.326;2022-07-30T05:07:38;5.47;;;4.40;;
12429;SDS011;6279;42.192;24.326;2022-07-30T05:10:05;6.23;;;4.50;;
12429;SDS011;6279;42.192;24.326;2022-07-30T05:12:37;7.72;;;4.65;;
12429;SDS011;6279;42.192;24.326;2022-07-30T05:15:06;4.95;;;4.45;;
12429;SDS011;6279;42.192;24.326;2022-07-30T05:17:33;7.68;;;5.13;;
12429;SDS011;6279;42.192;24.326;2022-07-30T05:19:59;5.22;;;4.45;;
12429;SDS011;6279;42.192;24.326;2022-07-30T05:22:24;6.80;;;4.78;;
12429;SDS011;6279;42.192;24.326;2022-07-30T05:24:54;6.13;;;4.63;;
12429;SDS011;6279;42.192;24.326;2022-07-30T05:27:22;5.15;;;4.22;;
12429;SDS011;6279;42.192;24.326;2022-07-30T05:29:47;7.35;;;4.30;;
12429;SDS011;6279;42.192;24.326;2022-07-30T05:32:13;8.50;;;4.90;;
12429;SDS011;6279;42.192;24.326;2022-07-30T05:34:38;7.57;;;4.38;;
12429;SDS011;6279;42.192;24.326;2022-07-30T05:37:04;9.57;;;4.32;;
12429;SDS011;6279;42.192;24.326;2022-07-30T05:39:30;6.68;;;4.40;;
12429;SDS011;6279;42.192;24.326;2022-07-30T05:41:55;7.40;;;4.18;;
12429;SDS011;6279;42.192;24.326;2022-07-30T05:44:21;4.50;;;3.92;;
12429;SDS011;6279;42.192;24.326;2022-07-30T05:46:47;8.80;;;4.43;;
12429;SDS011;6279;42.192;24.326;2022-07-30T05:49:13;8.73;;;3.88;;
12429;SDS011;6279;42.192;24.326;2022-07-30T05:51:39;6.03;;;4.57;;
12429;SDS011;6279;42.192;24.326;2022-07-30T05:54:05;5.10;;;4.07;;
12429;SDS011;6279;42.192;24.326;2022-07-30T05:56:30;5.35;;;3.83;;
12429;SDS011;6279;42.192;24.326;2022-07-30T05:58:56;5.30;;;3.88;;
12429;SDS011;6279;42.192;24.326;2022-07-30T06:01:21;5.10;;;4.05;;
12429;SDS011;6279;42.192;24.326;2022-07-30T06:03:47;7.18;;;4.18;;
12429;SDS011;6279;42.192;24.326;2022-07-30T06:06:12;9.57;;;4.10;;
12429;SDS011;6279;42.192;24.326;2022-07-30T06:08:37;4.57;;;3.75;;
12429;SDS011;6279;42.192;24.326;2022-07-30T06:11:03;5.20;;;4.18;;
12429;SDS011;6279;42.192;24.326;2022-07-30T06:13:28;5.40;;;3.55;;
12429;SDS011;6279;42.192;24.326;2022-07-30T06:15:54;8.88;;;3.50;;
12429;SDS011;6279;42.192;24.326;2022-07-30T06:18:20;5.05;;;3.20;;
12429;SDS011;6279;42.192;24.326;2022-07-30T06:20:45;5.05;;;3.78;;
12429;SDS011;6279;42.192;24.326;2022-07-30T06:23:11;4.75;;;4.05;;
12429;SDS011;6279;42.192;24.326;2022-07-30T06:25:36;9.65;;;3.97;;
12429;SDS011;6279;42.192;24.326;2022-07-30T06:28:02;6.15;;;3.38;;
12429;SDS011;6279;42.192;24.326;2022-07-30T06:30:27;5.72;;;3.30;;
12429;SDS011;6279;42.192;24.326;2022-07-30T06:32:53;3.97;;;3.67;;
12429;SDS011;6279;42.192;24.326;2022-07-30T06:35:19;8.52;;;3.50;;
12429;SDS011;6279;42.192;24.326;2022-07-30T06:37:44;6.10;;;4.10;;
12429;SDS011;6279;42.192;24.326;2022-07-30T06:40:10;4.32;;;3.53;;
12429;SDS011;6279;42.192;24.326;2022-07-30T06:42:36;5.10;;;3.42;;
12429;SDS011;6279;42.192;24.326;2022-07-30T06:45:01;3.97;;;3.58;;
12429;SDS011;6279;42.192;24.326;2022-07-30T06:47:27;5.30;;;3.60;;
12429;SDS011;6279;42.192;24.326;2022-07-30T06:49:56;4.53;;;3.78;;
12429;SDS011;6279;42.192;24.326;2022-07-30T06:52:22;7.18;;;3.78;;
12429;SDS011;6279;42.192;24.326;2022-07-30T06:54:49;7.13;;;3.40;;
12429;SDS011;6279;42.192;24.326;2022-07-30T06:57:14;4.35;;;3.83;;
12429;SDS011;6279;42.192;24.326;2022-07-30T06:59:40;4.47;;;3.60;;
12429;SDS011;6279;42.192;24.326;2022-07-30T07:02:05;4.80;;;4.03;;
12429;SDS011;6279;42.192;24.326;2022-07-30T07:04:31;6.90;;;3.80;;
12429;SDS011;6279;42.192;24.326;2022-07-30T07:06:57;4.30;;;3.90;;
12429;SDS011;6279;42.192;24.326;2022-07-30T07:09:22;5.03;;;4.05;;
12429;SDS011;6279;42.192;24.326;2022-07-30T07:11:48;4.22;;;3.72;;
12429;SDS011;6279;42.192;24.326;2022-07-30T07:14:13;8.13;;;3.92;;
12429;SDS011;6279;42.192;24.326;2022-07-30T07:16:39;6.75;;;4.00;;
12429;SDS011;6279;42.192;24.326;2022-07-30T07:19:04;5.25;;;4.43;;
12429;SDS011;6279;42.192;24.326;2022-07-30T07:21:30;5.38;;;4.30;;
12429;SDS011;6279;42.192;24.326;2022-07-30T07:23:55;7.47;;;4.78;;
12429;SDS011;6279;42.192;24.326;2022-07-30T07:26:21;6.50;;;4.32;;
12429;SDS011;6279;42.192;24.326;2022-07-30T07:28:46;5.85;;;4.63;;
12429;SDS011;6279;42.192;24.326;2022-07-30T07:31:12;9.15;;;4.60;;
12429;SDS011;6279;42.192;24.326;2022-07-30T07:33:37;5.65;;;4.70;;
12429;SDS011;6279;42.192;24.326;2022-07-30T07:36:04;5.75;;;4.57;;
12429;SDS011;6279;42.192;24.326;2022-07-30T07:38:30;8.05;;;5.07;;
12429;SDS011;6279;42.192;24.326;2022-07-30T07:40:56;7.53;;;4.50;;
12429;SDS011;6279;42.192;24.326;2022-07-30T07:43:21;16.38;;;4.97;;
12429;SDS011;6279;42.192;24.326;2022-07-30T07:45:49;25.98;;;6.47;;
12429;SDS011;6279;42.192;24.326;2022-07-30T07:48:15;6.55;;;3.88;;
12429;SDS011;6279;42.192;24.326;2022-07-30T07:50:41;5.40;;;3.67;;
12429;SDS011;6279;42.192;24.326;2022-07-30T07:53:06;7.07;;;4.00;;
12429;SDS011;6279;42.192;24.326;2022-07-30T07:55:32;4.18;;;3.78;;
12429;SDS011;6279;42.192;24.326;2022-07-30T07:57:57;4.85;;;4.45;;
12429;SDS011;6279;42.192;24.326;2022-07-30T08:00:22;30.50;;;6.75;;
12429;SDS011;6279;42.192;24.326;2022-07-30T08:02:48;4.50;;;3.58;;
12429;SDS011;6279;42.192;24.326;2022-07-30T08:05:14;8.98;;;4.70;;
12429;SDS011;6279;42.192;24.326;2022-07-30T08:07:41;8.52;;;4.47;;
12429;SDS011;6279;42.192;24.326;2022-07-30T08:10:08;7.07;;;3.65;;
12429;SDS011;6279;42.192;24.326;2022-07-30T08:12:35;5.13;;;4.07;;
12429;SDS011;6279;42.192;24.326;2022-07-30T08:15:01;4.30;;;3.90;;
12429;SDS011;6279;42.192;24.326;2022-07-30T08:17:27;4.95;;;4.07;;
12429;SDS011;6279;42.192;24.326;2022-07-30T08:19:52;4.78;;;3.80;;
12429;SDS011;6279;42.192;24.326;2022-07-30T08:22:22;4.45;;;3.17;;
12429;SDS011;6279;42.192;24.326;2022-07-30T08:24:48;4.25;;;3.55;;
12429;SDS011;6279;42.192;24.326;2022-07-30T08:27:13;7.70;;;5.68;;
12429;SDS011;6279;42.192;24.326;2022-07-30T08:29:38;7.55;;;4.25;;
12429;SDS011;6279;42.192;24.326;2022-07-30T08:32:04;5.47;;;4.72;;
12429;SDS011;6279;42.192;24.326;2022-07-30T08:34:29;7.65;;;3.63;;
12429;SDS011;6279;42.192;24.326;2022-07-30T08:36:55;6.07;;;3.75;;
12429;SDS011;6279;42.192;24.326;2022-07-30T08:39:20;4.20;;;3.88;;
12429;SDS011;6279;42.192;24.326;2022-07-30T08:41:46;4.55;;;3.45;;
12429;SDS011;6279;42.192;24.326;2022-07-30T08:44:12;3.60;;;3.30;;
12429;SDS011;6279;42.192;24.326;2022-07-30T08:46:42;5.43;;;3.30;;
12429;SDS011;6279;42.192;24.326;2022-07-30T08:49:10;4.40;;;3.20;;
12429;SDS011;6279;42.192;24.326;2022-07-30T08:51:36;5.63;;;3.40;;
12429;SDS011;6279;42.192;24.326;2022-07-30T08:54:02;5.22;;;3.63;;
12429;SDS011;6279;42.192;24.326;2022-07-30T08:56:29;3.50;;;3.20;;
12429;SDS011;6279;42.192;24.326;2022-07-30T08:58:56;4.13;;;3.20;;
12429;SDS011;6279;42.192;24.326;2022-07-30T09:01:23;4.25;;;3.47;;
12429;SDS011;6279;42.192;24.326;2022-07-30T09:03:48;3.22;;;2.92;;
12429;SDS011;6279;42.192;24.326;2022-07-30T09:06:14;3.95;;;3.45;;
12429;SDS011;6279;42.192;24.326;2022-07-30T09:08:39;4.20;;;3.30;;
12429;SDS011;6279;42.192;24.326;2022-07-30T09:11:05;3.45;;;3.13;;
12429;SDS011;6279;42.192;24.326;2022-07-30T09:13:32;7.65;;;3.47;;
12429;SDS011;6279;42.192;24.326;2022-07-30T09:15:59;6.07;;;3.70;;
12429;SDS011;6279;42.192;24.326;2022-07-30T09:20:51;4.38;;;3.15;;
12429;SDS011;6279;42.192;24.326;2022-07-30T09:23:17;3.63;;;3.22;;
12429;SDS011;6279;42.192;24.326;2022-07-30T09:25:43;4.93;;;3.10;;
12429;SDS011;6279;42.192;24.326;2022-07-30T09:28:10;4.28;;;3.10;;
12429;SDS011;6279;42.192;24.326;2022-07-30T09:33:10;3.97;;;3.00;;
12429;SDS011;6279;42.192;24.326;2022-07-30T09:35:36;3.20;;;3.00;;
12429;SDS011;6279;42.192;24.326;2022-07-30T09:38:02;4.10;;;3.00;;
12429;SDS011;6279;42.192;24.326;2022-07-30T09:40:29;2.90;;;2.60;;
12429;SDS011;6279;42.192;24.326;2022-07-30T09:43:05;5.28;;;2.80;;
12429;SDS011;6279;42.192;24.326;2022-07-30T09:45:32;3.10;;;2.85;;
12429;SDS011;6279;42.192;24.326;2022-07-30T09:47:58;4.57;;;2.90;;
12429;SDS011;6279;42.192;24.326;2022-07-30T09:50:24;7.72;;;3.20;;
12429;SDS011;6279;42.192;24.326;2022-07-30T09:52:51;5.35;;;3.13;;
12429;SDS011;6279;42.192;24.326;2022-07-30T09:55:31;3.28;;;2.90;;
12429;SDS011;6279;42.192;24.326;2022-07-30T09:58:03;4.80;;;3.00;;
12429;SDS011;6279;42.192;24.326;2022-07-30T10:00:30;4.05;;;2.65;;
12429;SDS011;6279;42.192;24.326;2022-07-30T10:02:57;4.47;;;2.92;;
12429;SDS011;6279;42.192;24.326;2022-07-30T10:05:24;6.15;;;3.17;;
12429;SDS011;6279;42.192;24.326;2022-07-30T10:10:24;3.30;;;2.85;;
12429;SDS011;6279;42.192;24.326;2022-07-30T10:13:02;3.03;;;2.67;;
12429;SDS011;6279;42.192;24.326;2022-07-30T10:15:30;3.65;;;2.92;;
12429;SDS011;6279;42.192;24.326;2022-07-30T10:17:57;2.90;;;2.70;;
12429;SDS011;6279;42.192;24.326;2022-07-30T10:20:24;3.58;;;2.70;;
12429;SDS011;6279;42.192;24.326;2022-07-30T10:22:50;3.60;;;2.85;;
12429;SDS011;6279;42.192;24.326;2022-07-30T10:25:17;3.22;;;2.92;;
12429;SDS011;6279;42.192;24.326;2022-07-30T10:27:43;3.80;;;2.75;;
12429;SDS011;6279;42.192;24.326;2022-07-30T10:30:10;3.10;;;2.80;;
12429;SDS011;6279;42.192;24.326;2022-07-30T10:32:36;5.07;;;3.03;;
12429;SDS011;6279;42.192;24.326;2022-07-30T10:35:02;3.65;;;3.00;;
12429;SDS011;6279;42.192;24.326;2022-07-30T10:37:29;3.80;;;2.67;;
12429;SDS011;6279;42.192;24.326;2022-07-30T10:48:30;5.25;;;3.90;;
12429;SDS011;6279;42.192;24.326;2022-07-30T10:50:56;5.93;;;3.28;;
12429;SDS011;6279;42.192;24.326;2022-07-30T10:53:33;3.70;;;3.30;;
12429;SDS011;6279;42.192;24.326;2022-07-30T10:56:17;3.88;;;3.58;;
12429;SDS011;6279;42.192;24.326;2022-07-30T11:06:43;5.75;;;3.28;;
12429;SDS011;6279;42.192;24.326;2022-07-30T11:12:03;4.25;;;3.10;;
12429;SDS011;6279;42.192;24.326;2022-07-30T11:17:17;4.53;;;3.28;;
12429;SDS011;6279;42.192;24.326;2022-07-30T11:22:37;4.10;;;3.33;;
12429;SDS011;6279;42.192;24.326;2022-07-30T11:25:05;4.88;;;3.30;;
12429;SDS011;6279;42.192;24.326;2022-07-30T11:27:46;4.63;;;3.15;;
12429;SDS011;6279;42.192;24.326;2022-07-30T11:32:39;4.18;;;3.58;;
12429;SDS011;6279;42.192;24.326;2022-07-30T11:35:39;5.72;;;3.40;;
12429;SDS011;6279;42.192;24.326;2022-07-30T11:48:35;3.22;;;2.92;;
12429;SDS011;6279;42.192;24.326;2022-07-30T11:51:02;3.67;;;3.10;;
12429;SDS011;6279;42.192;24.326;2022-07-30T11:53:29;4.35;;;3.25;;
12429;SDS011;6279;42.192;24.326;2022-07-30T11:55:56;3.25;;;3.00;;
12429;SDS011;6279;42.192;24.326;2022-07-30T12:01:03;4.13;;;3.45;;
12429;SDS011;6279;42.192;24.326;2022-07-30T12:03:30;3.58;;;3.08;;
12429;SDS011;6279;42.192;24.326;2022-07-30T12:06:06;4.35;;;3.33;;
12429;SDS011;6279;42.192;24.326;2022-07-30T12:08:40;3.80;;;3.00;;
12429;SDS011;6279;42.192;24.326;2022-07-30T12:11:07;4.93;;;3.58;;
12429;SDS011;6279;42.192;24.326;2022-07-30T12:13:33;3.67;;;3.38;;
12429;SDS011;6279;42.192;24.326;2022-07-30T12:15:59;5.03;;;3.00;;
12429;SDS011;6279;42.192;24.326;2022-07-30T12:18:25;4.57;;;2.70;;
12429;SDS011;6279;42.192;24.326;2022-07-30T12:21:03;3.28;;;2.95;;
12429;SDS011;6279;42.192;24.326;2022-07-30T12:23:36;5.20;;;2.92;;
12429;SDS011;6279;42.192;24.326;2022-07-30T12:26:01;3.58;;;2.90;;
12429;SDS011;6279;42.192;24.326;2022-07-30T12:28:28;3.05;;;2.80;;
12429;SDS011;6279;42.192;24.326;2022-07-30T12:30:57;4.53;;;3.00;;
12429;SDS011;6279;42.192;24.326;2022-07-30T12:33:23;3.25;;;3.00;;
12429;SDS011;6279;42.192;24.326;2022-07-30T12:35:50;4.57;;;2.92;;
12429;SDS011;6279;42.192;24.326;2022-07-30T12:38:20;3.50;;;3.20;;
12429;SDS011;6279;42.192;24.326;2022-07-30T12:46:25;5.07;;;3.45;;
12429;SDS011;6279;42.192;24.326;2022-07-30T12:48:55;3.40;;;2.80;;
12429;SDS011;6279;42.192;24.326;2022-07-30T12:51:26;2.60;;;2.40;;
12429;SDS011;6279;42.192;24.326;2022-07-30T12:53:53;3.85;;;3.15;;
12429;SDS011;6279;42.192;24.326;2022-07-30T12:56:27;3.15;;;2.95;;
12429;SDS011;6279;42.192;24.326;2022-07-30T12:58:54;3.20;;;2.90;;
12429;SDS011;6279;42.192;24.326;2022-07-30T13:01:40;3.70;;;2.80;;
12429;SDS011;6279;42.192;24.326;2022-07-30T13:04:09;3.33;;;3.08;;
12429;SDS011;6279;42.192;24.326;2022-07-30T13:06:37;6.43;;;4.57;;
12429;SDS011;6279;42.192;24.326;2022-07-30T13:09:04;3.67;;;2.90;;
12429;SDS011;6279;42.192;24.326;2022-07-30T13:11:37;3.45;;;2.80;;
12429;SDS011;6279;42.192;24.326;2022-07-30T13:14:03;4.10;;;2.72;;
12429;SDS011;6279;42.192;24.326;2022-07-30T13:16:30;4.90;;;2.70;;
12429;SDS011;6279;42.192;24.326;2022-07-30T13:18:56;5.00;;;2.70;;
12429;SDS011;6279;42.192;24.326;2022-07-30T13:21:21;3.08;;;2.55;;
12429;SDS011;6279;42.192;24.326;2022-07-30T13:23:47;3.50;;;3.13;;
12429;SDS011;6279;42.192;24.326;2022-07-30T13:26:12;3.53;;;2.80;;
12429;SDS011;6279;42.192;24.326;2022-07-30T13:28:38;2.70;;;2.42;;
12429;SDS011;6279;42.192;24.326;2022-07-30T13:31:04;2.70;;;2.50;;
12429;SDS011;6279;42.192;24.326;2022-07-30T13:33:31;5.18;;;2.40;;
12429;SDS011;6279;42.192;24.326;2022-07-30T13:35:57;3.17;;;2.88;;
12429;SDS011;6279;42.192;24.326;2022-07-30T13:38:23;3.67;;;2.50;;
12429;SDS011;6279;42.192;24.326;2022-07-30T13:40:48;4.65;;;2.70;;
12429;SDS011;6279;42.192;24.326;2022-07-30T13:43:14;3.90;;;2.67;;
12429;SDS011;6279;42.192;24.326;2022-07-30T13:45:40;2.80;;;2.50;;
12429;SDS011;6279;42.192;24.326;2022-07-30T13:48:05;3.25;;;2.67;;
12429;SDS011;6279;42.192;24.326;2022-07-30T13:50:31;4.05;;;2.60;;
12429;SDS011;6279;42.192;24.326;2022-07-30T13:52:57;2.92;;;2.70;;
12429;SDS011;6279;42.192;24.326;2022-07-30T13:55:23;4.43;;;2.63;;
12429;SDS011;6279;42.192;24.326;2022-07-30T13:57:48;4.53;;;2.50;;
12429;SDS011;6279;42.192;24.326;2022-07-30T14:00:16;3.83;;;2.72;;
12429;SDS011;6279;42.192;24.326;2022-07-30T14:02:41;2.75;;;2.22;;
12429;SDS011;6279;42.192;24.326;2022-07-30T14:05:07;3.13;;;2.80;;
12429;SDS011;6279;42.192;24.326;2022-07-30T14:07:33;2.80;;;2.40;;
12429;SDS011;6279;42.192;24.326;2022-07-30T14:09:59;2.40;;;2.20;;
12429;SDS011;6279;42.192;24.326;2022-07-30T14:12:24;2.90;;;2.65;;
12429;SDS011;6279;42.192;24.326;2022-07-30T14:14:50;2.50;;;2.30;;
12429;SDS011;6279;42.192;24.326;2022-07-30T14:17:16;3.25;;;2.95;;
12429;SDS011;6279;42.192;24.326;2022-07-30T14:19:41;2.72;;;2.50;;
12429;SDS011;6279;42.192;24.326;2022-07-30T14:22:07;3.67;;;2.50;;
12429;SDS011;6279;42.192;24.326;2022-07-30T14:24:32;2.78;;;2.58;;
12429;SDS011;6279;42.192;24.326;2022-07-30T14:26:57;3.13;;;2.80;;
12429;SDS011;6279;42.192;24.326;2022-07-30T14:29:23;4.10;;;2.67;;
12429;SDS011;6279;42.192;24.326;2022-07-30T14:31:50;4.90;;;2.67;;
12429;SDS011;6279;42.192;24.326;2022-07-30T14:34:15;2.97;;;2.30;;
12429;SDS011;6279;42.192;24.326;2022-07-30T14:36:43;2.70;;;2.50;;
12429;SDS011;6279;42.192;24.326;2022-07-30T14:39:08;5.30;;;2.28;;
12429;SDS011;6279;42.192;24.326;2022-07-30T14:41:34;2.90;;;2.60;;
12429;SDS011;6279;42.192;24.326;2022-07-30T14:44:01;2.45;;;2.25;;
12429;SDS011;6279;42.192;24.326;2022-07-30T14:46:27;2.85;;;2.45;;
12429;SDS011;6279;42.192;24.326;2022-07-30T14:48:52;2.58;;;2.08;;
12429;SDS011;6279;42.192;24.326;2022-07-30T14:51:18;3.17;;;2.28;;
12429;SDS011;6279;42.192;24.326;2022-07-30T14:53:43;3.42;;;2.40;;
12429;SDS011;6279;42.192;24.326;2022-07-30T14:56:09;6.03;;;2.42;;
12429;SDS011;6279;42.192;24.326;2022-07-30T14:58:34;2.50;;;2.05;;
12429;SDS011;6279;42.192;24.326;2022-07-30T15:00:59;2.60;;;2.40;;
12429;SDS011;6279;42.192;24.326;2022-07-30T15:03:25;4.75;;;2.50;;
12429;SDS011;6279;42.192;24.326;2022-07-30T15:05:50;4.15;;;2.25;;
12429;SDS011;6279;42.192;24.326;2022-07-30T15:08:16;4.20;;;2.65;;
12429;SDS011;6279;42.192;24.326;2022-07-30T15:10:41;2.30;;;1.95;;
12429;SDS011;6279;42.192;24.326;2022-07-30T15:13:07;2.28;;;2.08;;
12429;SDS011;6279;42.192;24.326;2022-07-30T15:15:32;7.10;;;2.30;;
12429;SDS011;6279;42.192;24.326;2022-07-30T15:17:59;3.67;;;2.50;;
12429;SDS011;6279;42.192;24.326;2022-07-30T15:20:25;2.83;;;2.00;;
12429;SDS011;6279;42.192;24.326;2022-07-30T15:22:50;2.67;;;2.33;;
12429;SDS011;6279;42.192;24.326;2022-07-30T15:25:16;2.45;;;1.85;;
12429;SDS011;6279;42.192;24.326;2022-07-30T15:27:42;3.97;;;2.22;;
12429;SDS011;6279;42.192;24.326;2022-07-30T15:30:07;2.22;;;2.03;;
12429;SDS011;6279;42.192;24.326;2022-07-30T15:32:33;4.38;;;2.47;;
12429;SDS011;6279;42.192;24.326;2022-07-30T15:34:58;2.55;;;2.28;;
12429;SDS011;6279;42.192;24.326;2022-07-30T15:37:24;4.80;;;2.40;;
12429;SDS011;6279;42.192;24.326;2022-07-30T15:39:49;3.58;;;2.63;;
12429;SDS011;6279;42.192;24.326;2022-07-30T15:42:15;3.85;;;2.70;;
12429;SDS011;6279;42.192;24.326;2022-07-30T15:44:40;2.75;;;2.30;;
12429;SDS011;6279;42.192;24.326;2022-07-30T15:47:06;3.80;;;2.47;;
12429;SDS011;6279;42.192;24.326;2022-07-30T15:49:31;3.35;;;2.35;;
12429;SDS011;6279;42.192;24.326;2022-07-30T15:51:57;3.55;;;2.55;;
12429;SDS011;6279;42.192;24.326;2022-07-30T15:54:24;3.53;;;2.75;;
12429;SDS011;6279;42.192;24.326;2022-07-30T15:56:50;2.65;;;2.45;;